sensor_id;sensor_type;location;lat;lon;timestamp;P1;durP1;ratioP1;P2;durP2;ratioP2
8663;SDS011;4369;47.842;13.096;2023-04-25T00:00:17;2.07;;;1.83;;
8663;SDS011;4369;47.842;13.096;2023-04-25T00:02:45;2.27;;;2.07;;
8663;SDS011;4369;47.842;13.096;2023-04-25T00:05:12;2.63;;;2.27;;
8663;SDS011;4369;47.842;13.096;2023-04-25T00:07:40;2.67;;;2.00;;
8663;SDS011;4369;47.842;13.096;2023-04-25T00:10:08;2.70;;;2.43;;
8663;SDS011;4369;47.842;13.096;2023-04-25T00:12:36;2.13;;;2.00;;
8663;SDS011;4369;47.842;13.096;2023-04-25T00:15:04;2.77;;;2.10;;
8663;SDS011;4369;47.842;13.096;2023-04-25T00:17:31;3.23;;;2.27;;
8663;SDS011;4369;47.842;13.096;2023-04-25T00:20:01;3.20;;;2.13;;
8663;SDS011;4369;47.842;13.096;2023-04-25T00:22:33;2.23;;;2.03;;
8663;SDS011;4369;47.842;13.096;2023-04-25T00:25:02;2.20;;;2.10;;
8663;SDS011;4369;47.842;13.096;2023-04-25T00:27:29;3.53;;;2.43;;
8663;SDS011;4369;47.842;13.096;2023-04-25T00:29:56;2.77;;;2.40;;
8663;SDS011;4369;47.842;13.096;2023-04-25T00:32:23;2.53;;;2.33;;
8663;SDS011;4369;47.842;13.096;2023-04-25T00:34:50;6.30;;;2.40;;
8663;SDS011;4369;47.842;13.096;2023-04-25T00:37:18;2.77;;;2.57;;
8663;SDS011;4369;47.842;13.096;2023-04-25T00:39:45;2.13;;;1.93;;
8663;SDS011;4369;47.842;13.096;2023-04-25T00:42:12;6.03;;;2.70;;
8663;SDS011;4369;47.842;13.096;2023-04-25T00:44:39;3.00;;;2.33;;
8663;SDS011;4369;47.842;13.096;2023-04-25T00:47:06;2.87;;;2.57;;
8663;SDS011;4369;47.842;13.096;2023-04-25T00:49:34;2.60;;;2.40;;
8663;SDS011;4369;47.842;13.096;2023-04-25T00:52:00;2.30;;;2.20;;
8663;SDS011;4369;47.842;13.096;2023-04-25T00:54:29;2.90;;;2.60;;
8663;SDS011;4369;47.842;13.096;2023-04-25T00:56:56;2.83;;;2.63;;
8663;SDS011;4369;47.842;13.096;2023-04-25T00:59:23;3.20;;;2.40;;
8663;SDS011;4369;47.842;13.096;2023-04-25T01:01:52;3.07;;;2.30;;
8663;SDS011;4369;47.842;13.096;2023-04-25T01:04:20;2.70;;;2.50;;
8663;SDS011;4369;47.842;13.096;2023-04-25T01:06:47;2.90;;;2.60;;
8663;SDS011;4369;47.842;13.096;2023-04-25T01:09:14;3.77;;;3.03;;
8663;SDS011;4369;47.842;13.096;2023-04-25T01:11:43;6.20;;;2.77;;
8663;SDS011;4369;47.842;13.096;2023-04-25T01:14:10;5.67;;;3.27;;
8663;SDS011;4369;47.842;13.096;2023-04-25T01:16:37;4.30;;;3.33;;
8663;SDS011;4369;47.842;13.096;2023-04-25T01:19:04;3.80;;;3.40;;
8663;SDS011;4369;47.842;13.096;2023-04-25T01:21:37;6.73;;;3.13;;
8663;SDS011;4369;47.842;13.096;2023-04-25T01:24:04;6.80;;;3.47;;
8663;SDS011;4369;47.842;13.096;2023-04-25T01:26:32;3.20;;;3.00;;
8663;SDS011;4369;47.842;13.096;2023-04-25T01:28:59;5.30;;;3.20;;
8663;SDS011;4369;47.842;13.096;2023-04-25T01:31:27;4.80;;;2.97;;
8663;SDS011;4369;47.842;13.096;2023-04-25T01:33:54;7.27;;;3.03;;
8663;SDS011;4369;47.842;13.096;2023-04-25T01:36:21;3.27;;;2.97;;
8663;SDS011;4369;47.842;13.096;2023-04-25T01:38:49;3.97;;;2.83;;
8663;SDS011;4369;47.842;13.096;2023-04-25T01:41:17;3.13;;;2.87;;
8663;SDS011;4369;47.842;13.096;2023-04-25T01:43:45;4.40;;;2.90;;
8663;SDS011;4369;47.842;13.096;2023-04-25T01:46:12;3.40;;;3.10;;
8663;SDS011;4369;47.842;13.096;2023-04-25T01:48:39;3.73;;;3.43;;
8663;SDS011;4369;47.842;13.096;2023-04-25T01:51:05;4.60;;;3.20;;
8663;SDS011;4369;47.842;13.096;2023-04-25T01:53:32;3.63;;;3.00;;
8663;SDS011;4369;47.842;13.096;2023-04-25T01:56:01;5.20;;;3.13;;
8663;SDS011;4369;47.842;13.096;2023-04-25T01:58:28;4.17;;;3.33;;
8663;SDS011;4369;47.842;13.096;2023-04-25T02:00:55;3.60;;;2.97;;
8663;SDS011;4369;47.842;13.096;2023-04-25T02:03:22;3.73;;;3.10;;
8663;SDS011;4369;47.842;13.096;2023-04-25T02:05:49;3.53;;;2.93;;
8663;SDS011;4369;47.842;13.096;2023-04-25T02:08:16;3.57;;;2.90;;
8663;SDS011;4369;47.842;13.096;2023-04-25T02:10:43;5.20;;;3.50;;
8663;SDS011;4369;47.842;13.096;2023-04-25T02:13:11;5.00;;;3.40;;
8663;SDS011;4369;47.842;13.096;2023-04-25T02:15:38;3.90;;;3.50;;
8663;SDS011;4369;47.842;13.096;2023-04-25T02:18:06;3.43;;;3.00;;
8663;SDS011;4369;47.842;13.096;2023-04-25T02:20:34;4.27;;;3.33;;
8663;SDS011;4369;47.842;13.096;2023-04-25T02:23:01;3.50;;;3.20;;
8663;SDS011;4369;47.842;13.096;2023-04-25T02:25:28;3.70;;;2.97;;
8663;SDS011;4369;47.842;13.096;2023-04-25T02:27:55;3.67;;;3.27;;
8663;SDS011;4369;47.842;13.096;2023-04-25T02:30:23;4.67;;;3.37;;
8663;SDS011;4369;47.842;13.096;2023-04-25T02:32:50;3.83;;;3.33;;
8663;SDS011;4369;47.842;13.096;2023-04-25T02:35:17;3.73;;;3.40;;
8663;SDS011;4369;47.842;13.096;2023-04-25T02:37:44;4.20;;;3.73;;
8663;SDS011;4369;47.842;13.096;2023-04-25T02:40:11;4.33;;;4.00;;
8663;SDS011;4369;47.842;13.096;2023-04-25T02:42:38;4.10;;;3.70;;
8663;SDS011;4369;47.842;13.096;2023-04-25T02:45:05;4.40;;;4.05;;
8663;SDS011;4369;47.842;13.096;2023-04-25T02:47:34;3.90;;;3.50;;
8663;SDS011;4369;47.842;13.096;2023-04-25T02:50:01;4.07;;;3.67;;
8663;SDS011;4369;47.842;13.096;2023-04-25T02:52:29;4.20;;;3.80;;
8663;SDS011;4369;47.842;13.096;2023-04-25T02:54:56;5.03;;;4.00;;
8663;SDS011;4369;47.842;13.096;2023-04-25T02:57:23;4.37;;;3.97;;
8663;SDS011;4369;47.842;13.096;2023-04-25T02:59:50;4.23;;;3.90;;
8663;SDS011;4369;47.842;13.096;2023-04-25T03:02:17;4.70;;;4.20;;
8663;SDS011;4369;47.842;13.096;2023-04-25T03:04:45;5.20;;;4.70;;
8663;SDS011;4369;47.842;13.096;2023-04-25T03:07:13;4.93;;;4.00;;
8663;SDS011;4369;47.842;13.096;2023-04-25T03:09:39;4.20;;;3.80;;
8663;SDS011;4369;47.842;13.096;2023-04-25T03:12:06;5.43;;;3.97;;
8663;SDS011;4369;47.842;13.096;2023-04-25T03:14:33;4.60;;;3.70;;
8663;SDS011;4369;47.842;13.096;2023-04-25T03:17:01;4.20;;;3.90;;
8663;SDS011;4369;47.842;13.096;2023-04-25T03:19:27;4.10;;;3.70;;
8663;SDS011;4369;47.842;13.096;2023-04-25T03:21:56;3.70;;;3.40;;
8663;SDS011;4369;47.842;13.096;2023-04-25T03:24:23;3.87;;;3.40;;
8663;SDS011;4369;47.842;13.096;2023-04-25T03:26:49;4.07;;;3.67;;
8663;SDS011;4369;47.842;13.096;2023-04-25T03:29:16;5.00;;;3.87;;
8663;SDS011;4369;47.842;13.096;2023-04-25T03:31:43;5.60;;;3.70;;
8663;SDS011;4369;47.842;13.096;2023-04-25T03:34:10;4.30;;;3.90;;
8663;SDS011;4369;47.842;13.096;2023-04-25T03:36:39;5.23;;;3.90;;
8663;SDS011;4369;47.842;13.096;2023-04-25T03:39:07;4.97;;;3.60;;
8663;SDS011;4369;47.842;13.096;2023-04-25T03:41:34;4.00;;;3.70;;
8663;SDS011;4369;47.842;13.096;2023-04-25T03:44:01;4.87;;;4.10;;
8663;SDS011;4369;47.842;13.096;2023-04-25T03:46:28;5.30;;;4.20;;
8663;SDS011;4369;47.842;13.096;2023-04-25T03:48:54;3.53;;;3.27;;
8663;SDS011;4369;47.842;13.096;2023-04-25T03:51:21;4.10;;;3.70;;
8663;SDS011;4369;47.842;13.096;2023-04-25T03:53:49;4.68;;;4.28;;
8663;SDS011;4369;47.842;13.096;2023-04-25T03:56:17;4.27;;;3.87;;
8663;SDS011;4369;47.842;13.096;2023-04-25T03:58:44;5.77;;;4.10;;
8663;SDS011;4369;47.842;13.096;2023-04-25T04:01:11;4.20;;;3.70;;
8663;SDS011;4369;47.842;13.096;2023-04-25T04:03:38;4.47;;;4.07;;
8663;SDS011;4369;47.842;13.096;2023-04-25T04:06:05;4.70;;;3.90;;
8663;SDS011;4369;47.842;13.096;2023-04-25T04:08:32;4.47;;;4.07;;
8663;SDS011;4369;47.842;13.096;2023-04-25T04:11:00;4.63;;;3.37;;
8663;SDS011;4369;47.842;13.096;2023-04-25T04:13:28;5.50;;;3.63;;
8663;SDS011;4369;47.842;13.096;2023-04-25T04:15:55;4.23;;;3.83;;
8663;SDS011;4369;47.842;13.096;2023-04-25T04:18:23;3.77;;;3.47;;
8663;SDS011;4369;47.842;13.096;2023-04-25T04:20:49;4.20;;;3.80;;
8663;SDS011;4369;47.842;13.096;2023-04-25T04:23:16;4.27;;;3.87;;
8663;SDS011;4369;47.842;13.096;2023-04-25T04:25:43;3.80;;;3.30;;
8663;SDS011;4369;47.842;13.096;2023-04-25T04:28:10;4.53;;;3.90;;
8663;SDS011;4369;47.842;13.096;2023-04-25T04:30:39;4.00;;;3.53;;
8663;SDS011;4369;47.842;13.096;2023-04-25T04:33:07;4.10;;;3.73;;
8663;SDS011;4369;47.842;13.096;2023-04-25T04:35:34;3.70;;;3.40;;
8663;SDS011;4369;47.842;13.096;2023-04-25T04:38:01;4.67;;;3.77;;
8663;SDS011;4369;47.842;13.096;2023-04-25T04:40:28;3.90;;;3.60;;
8663;SDS011;4369;47.842;13.096;2023-04-25T04:42:56;3.90;;;3.60;;
8663;SDS011;4369;47.842;13.096;2023-04-25T04:45:23;4.63;;;3.83;;
8663;SDS011;4369;47.842;13.096;2023-04-25T04:47:51;4.57;;;3.23;;
8663;SDS011;4369;47.842;13.096;2023-04-25T04:50:20;3.80;;;3.50;;
8663;SDS011;4369;47.842;13.096;2023-04-25T04:52:47;4.77;;;3.93;;
8663;SDS011;4369;47.842;13.096;2023-04-25T04:55:14;5.07;;;3.63;;
8663;SDS011;4369;47.842;13.096;2023-04-25T04:57:41;3.73;;;3.43;;
8663;SDS011;4369;47.842;13.096;2023-04-25T05:00:09;3.90;;;3.60;;
8663;SDS011;4369;47.842;13.096;2023-04-25T05:02:37;4.67;;;3.90;;
8663;SDS011;4369;47.842;13.096;2023-04-25T05:05:06;3.40;;;3.10;;
8663;SDS011;4369;47.842;13.096;2023-04-25T05:07:34;5.67;;;3.47;;
8663;SDS011;4369;47.842;13.096;2023-04-25T05:10:01;4.20;;;3.53;;
8663;SDS011;4369;47.842;13.096;2023-04-25T05:12:28;3.70;;;3.40;;
8663;SDS011;4369;47.842;13.096;2023-04-25T05:14:55;4.83;;;3.50;;
8663;SDS011;4369;47.842;13.096;2023-04-25T05:17:22;4.10;;;3.50;;
8663;SDS011;4369;47.842;13.096;2023-04-25T05:19:49;4.10;;;3.70;;
8663;SDS011;4369;47.842;13.096;2023-04-25T05:22:17;7.20;;;3.90;;
8663;SDS011;4369;47.842;13.096;2023-04-25T05:24:44;4.00;;;3.53;;
8663;SDS011;4369;47.842;13.096;2023-04-25T05:27:11;4.03;;;3.50;;
8663;SDS011;4369;47.842;13.096;2023-04-25T05:29:38;5.43;;;3.50;;
8663;SDS011;4369;47.842;13.096;2023-04-25T05:32:05;5.30;;;3.40;;
8663;SDS011;4369;47.842;13.096;2023-04-25T05:34:32;4.20;;;3.53;;
8663;SDS011;4369;47.842;13.096;2023-04-25T05:36:59;5.63;;;4.30;;
8663;SDS011;4369;47.842;13.096;2023-04-25T05:39:27;5.97;;;3.30;;
8663;SDS011;4369;47.842;13.096;2023-04-25T05:41:54;3.83;;;3.17;;
8663;SDS011;4369;47.842;13.096;2023-04-25T05:44:21;5.00;;;3.47;;
8663;SDS011;4369;47.842;13.096;2023-04-25T05:46:48;4.07;;;3.50;;
8663;SDS011;4369;47.842;13.096;2023-04-25T05:49:15;6.23;;;3.70;;
8663;SDS011;4369;47.842;13.096;2023-04-25T05:51:42;3.73;;;3.10;;
8663;SDS011;4369;47.842;13.096;2023-04-25T05:54:09;3.60;;;3.00;;
8663;SDS011;4369;47.842;13.096;2023-04-25T05:56:37;5.43;;;3.40;;
8663;SDS011;4369;47.842;13.096;2023-04-25T05:59:04;4.87;;;3.20;;
8663;SDS011;4369;47.842;13.096;2023-04-25T06:01:31;6.07;;;3.53;;
8663;SDS011;4369;47.842;13.096;2023-04-25T06:03:58;3.77;;;2.90;;
8663;SDS011;4369;47.842;13.096;2023-04-25T06:06:25;4.20;;;3.20;;
8663;SDS011;4369;47.842;13.096;2023-04-25T06:08:51;3.33;;;2.80;;
8663;SDS011;4369;47.842;13.096;2023-04-25T06:11:19;6.90;;;2.80;;
8663;SDS011;4369;47.842;13.096;2023-04-25T06:13:47;5.63;;;2.80;;
8663;SDS011;4369;47.842;13.096;2023-04-25T06:16:14;3.57;;;2.37;;
8663;SDS011;4369;47.842;13.096;2023-04-25T06:18:41;3.03;;;2.47;;
8663;SDS011;4369;47.842;13.096;2023-04-25T06:21:07;6.33;;;3.13;;
8663;SDS011;4369;47.842;13.096;2023-04-25T06:23:34;3.97;;;3.13;;
8663;SDS011;4369;47.842;13.096;2023-04-25T06:26:01;4.70;;;2.80;;
8663;SDS011;4369;47.842;13.096;2023-04-25T06:28:28;3.10;;;2.70;;
8663;SDS011;4369;47.842;13.096;2023-04-25T06:30:56;2.67;;;2.47;;
8663;SDS011;4369;47.842;13.096;2023-04-25T06:33:23;3.27;;;2.63;;
8663;SDS011;4369;47.842;13.096;2023-04-25T06:35:50;2.57;;;2.37;;
8663;SDS011;4369;47.842;13.096;2023-04-25T06:38:17;3.83;;;2.87;;
8663;SDS011;4369;47.842;13.096;2023-04-25T06:40:44;5.07;;;4.00;;
8663;SDS011;4369;47.842;13.096;2023-04-25T06:43:10;3.73;;;2.63;;
8663;SDS011;4369;47.842;13.096;2023-04-25T06:45:37;5.73;;;2.70;;
8663;SDS011;4369;47.842;13.096;2023-04-25T06:48:05;4.77;;;2.57;;
8663;SDS011;4369;47.842;13.096;2023-04-25T06:50:33;5.50;;;2.70;;
8663;SDS011;4369;47.842;13.096;2023-04-25T06:53:00;5.53;;;2.97;;
8663;SDS011;4369;47.842;13.096;2023-04-25T06:55:27;2.93;;;2.57;;
8663;SDS011;4369;47.842;13.096;2023-04-25T06:57:54;4.10;;;2.80;;
8663;SDS011;4369;47.842;13.096;2023-04-25T07:00:21;5.60;;;3.20;;
8663;SDS011;4369;47.842;13.096;2023-04-25T07:02:48;5.50;;;3.27;;
8663;SDS011;4369;47.842;13.096;2023-04-25T07:05:16;3.53;;;3.23;;
8663;SDS011;4369;47.842;13.096;2023-04-25T07:07:43;7.40;;;3.70;;
8663;SDS011;4369;47.842;13.096;2023-04-25T07:10:10;6.70;;;4.60;;
8663;SDS011;4369;47.842;13.096;2023-04-25T07:12:37;5.60;;;3.63;;
8663;SDS011;4369;47.842;13.096;2023-04-25T07:15:04;4.67;;;4.20;;
8663;SDS011;4369;47.842;13.096;2023-04-25T07:17:35;5.73;;;4.33;;
8663;SDS011;4369;47.842;13.096;2023-04-25T07:20:01;5.27;;;4.00;;
8663;SDS011;4369;47.842;13.096;2023-04-25T07:22:32;3.60;;;3.30;;
8663;SDS011;4369;47.842;13.096;2023-04-25T07:24:59;4.93;;;3.80;;
8663;SDS011;4369;47.842;13.096;2023-04-25T07:27:26;4.70;;;3.80;;
8663;SDS011;4369;47.842;13.096;2023-04-25T07:29:53;3.43;;;3.13;;
8663;SDS011;4369;47.842;13.096;2023-04-25T07:32:19;6.00;;;3.10;;
8663;SDS011;4369;47.842;13.096;2023-04-25T07:34:46;4.00;;;3.10;;
8663;SDS011;4369;47.842;13.096;2023-04-25T07:37:13;3.63;;;2.97;;
8663;SDS011;4369;47.842;13.096;2023-04-25T07:39:41;3.50;;;2.57;;
8663;SDS011;4369;47.842;13.096;2023-04-25T07:42:08;2.43;;;2.23;;
8663;SDS011;4369;47.842;13.096;2023-04-25T07:44:35;2.13;;;2.00;;
8663;SDS011;4369;47.842;13.096;2023-04-25T07:47:04;3.80;;;2.00;;
8663;SDS011;4369;47.842;13.096;2023-04-25T07:49:32;4.57;;;2.60;;
8663;SDS011;4369;47.842;13.096;2023-04-25T07:51:59;3.53;;;2.30;;
8663;SDS011;4369;47.842;13.096;2023-04-25T07:54:27;2.50;;;2.30;;
8663;SDS011;4369;47.842;13.096;2023-04-25T07:56:55;3.23;;;2.20;;
8663;SDS011;4369;47.842;13.096;2023-04-25T07:59:22;2.83;;;2.20;;
8663;SDS011;4369;47.842;13.096;2023-04-25T08:01:49;3.67;;;2.30;;
8663;SDS011;4369;47.842;13.096;2023-04-25T08:04:16;3.73;;;2.57;;
8663;SDS011;4369;47.842;13.096;2023-04-25T08:06:43;2.77;;;2.50;;
8663;SDS011;4369;47.842;13.096;2023-04-25T08:09:10;3.30;;;2.17;;
8663;SDS011;4369;47.842;13.096;2023-04-25T08:11:37;3.37;;;2.43;;
8663;SDS011;4369;47.842;13.096;2023-04-25T08:14:07;2.87;;;2.40;;
8663;SDS011;4369;47.842;13.096;2023-04-25T08:16:33;2.87;;;2.23;;
8663;SDS011;4369;47.842;13.096;2023-04-25T08:19:01;2.80;;;2.13;;
8663;SDS011;4369;47.842;13.096;2023-04-25T08:21:28;3.57;;;2.53;;
8663;SDS011;4369;47.842;13.096;2023-04-25T08:23:56;4.57;;;2.50;;
8663;SDS011;4369;47.842;13.096;2023-04-25T08:26:23;2.63;;;2.10;;
8663;SDS011;4369;47.842;13.096;2023-04-25T08:28:50;3.93;;;2.30;;
8663;SDS011;4369;47.842;13.096;2023-04-25T08:31:18;2.90;;;2.57;;
8663;SDS011;4369;47.842;13.096;2023-04-25T08:33:45;2.53;;;2.33;;
8663;SDS011;4369;47.842;13.096;2023-04-25T08:36:12;2.90;;;2.40;;
8663;SDS011;4369;47.842;13.096;2023-04-25T08:38:39;5.03;;;2.27;;
8663;SDS011;4369;47.842;13.096;2023-04-25T08:41:06;3.90;;;2.50;;
8663;SDS011;4369;47.842;13.096;2023-04-25T08:43:33;2.60;;;2.40;;
8663;SDS011;4369;47.842;13.096;2023-04-25T08:46:01;3.60;;;2.50;;
8663;SDS011;4369;47.842;13.096;2023-04-25T08:48:31;5.80;;;2.40;;
8663;SDS011;4369;47.842;13.096;2023-04-25T08:50:59;3.63;;;2.23;;
8663;SDS011;4369;47.842;13.096;2023-04-25T08:53:29;2.40;;;2.00;;
8663;SDS011;4369;47.842;13.096;2023-04-25T08:55:58;5.50;;;2.67;;
8663;SDS011;4369;47.842;13.096;2023-04-25T08:58:26;3.77;;;2.50;;
8663;SDS011;4369;47.842;13.096;2023-04-25T09:00:54;2.50;;;2.13;;
8663;SDS011;4369;47.842;13.096;2023-04-25T09:03:21;4.03;;;2.70;;
8663;SDS011;4369;47.842;13.096;2023-04-25T09:05:49;3.30;;;2.57;;
8663;SDS011;4369;47.842;13.096;2023-04-25T09:08:17;3.47;;;2.33;;
8663;SDS011;4369;47.842;13.096;2023-04-25T09:10:44;2.63;;;2.17;;
8663;SDS011;4369;47.842;13.096;2023-04-25T09:13:12;3.23;;;2.43;;
8663;SDS011;4369;47.842;13.096;2023-04-25T09:15:48;2.53;;;2.33;;
8663;SDS011;4369;47.842;13.096;2023-04-25T09:18:21;3.70;;;2.10;;
8663;SDS011;4369;47.842;13.096;2023-04-25T09:20:51;4.60;;;2.33;;
8663;SDS011;4369;47.842;13.096;2023-04-25T09:23:19;4.83;;;1.90;;
8663;SDS011;4369;47.842;13.096;2023-04-25T09:25:47;2.87;;;1.80;;
8663;SDS011;4369;47.842;13.096;2023-04-25T09:28:15;3.83;;;1.80;;
8663;SDS011;4369;47.842;13.096;2023-04-25T09:30:42;3.47;;;1.90;;
8663;SDS011;4369;47.842;13.096;2023-04-25T09:33:09;2.73;;;2.07;;
8663;SDS011;4369;47.842;13.096;2023-04-25T09:35:37;4.27;;;1.90;;
8663;SDS011;4369;47.842;13.096;2023-04-25T09:38:11;1.77;;;1.67;;
8663;SDS011;4369;47.842;13.096;2023-04-25T09:40:40;2.63;;;2.10;;
8663;SDS011;4369;47.842;13.096;2023-04-25T09:43:10;2.57;;;2.37;;
8663;SDS011;4369;47.842;13.096;2023-04-25T09:45:44;2.53;;;2.33;;
8663;SDS011;4369;47.842;13.096;2023-04-25T09:48:15;2.60;;;2.40;;
8663;SDS011;4369;47.842;13.096;2023-04-25T09:50:44;4.87;;;2.67;;
8663;SDS011;4369;47.842;13.096;2023-04-25T09:53:13;2.73;;;2.50;;
8663;SDS011;4369;47.842;13.096;2023-04-25T09:55:40;4.20;;;3.00;;
8663;SDS011;4369;47.842;13.096;2023-04-25T09:58:08;3.83;;;2.33;;
8663;SDS011;4369;47.842;13.096;2023-04-25T10:00:37;2.63;;;2.43;;
8663;SDS011;4369;47.842;13.096;2023-04-25T10:03:05;2.80;;;2.60;;
8663;SDS011;4369;47.842;13.096;2023-04-25T10:05:32;4.23;;;2.63;;
8663;SDS011;4369;47.842;13.096;2023-04-25T10:08:02;2.67;;;2.40;;
8663;SDS011;4369;47.842;13.096;2023-04-25T10:10:33;3.70;;;2.80;;
8663;SDS011;4369;47.842;13.096;2023-04-25T10:13:03;3.03;;;2.60;;
8663;SDS011;4369;47.842;13.096;2023-04-25T10:15:31;4.97;;;2.43;;
8663;SDS011;4369;47.842;13.096;2023-04-25T10:18:01;3.37;;;2.30;;
8663;SDS011;4369;47.842;13.096;2023-04-25T10:20:28;3.83;;;2.43;;
8663;SDS011;4369;47.842;13.096;2023-04-25T10:22:57;3.53;;;2.53;;
8663;SDS011;4369;47.842;13.096;2023-04-25T10:25:34;3.83;;;2.17;;
8663;SDS011;4369;47.842;13.096;2023-04-25T10:28:03;3.83;;;2.50;;
8663;SDS011;4369;47.842;13.096;2023-04-25T10:30:30;3.43;;;2.43;;
8663;SDS011;4369;47.842;13.096;2023-04-25T10:32:58;2.67;;;2.47;;
8663;SDS011;4369;47.842;13.096;2023-04-25T10:35:25;3.33;;;2.17;;
8663;SDS011;4369;47.842;13.096;2023-04-25T10:37:57;2.30;;;2.20;;
8663;SDS011;4369;47.842;13.096;2023-04-25T10:40:25;2.33;;;2.10;;
8663;SDS011;4369;47.842;13.096;2023-04-25T10:42:54;2.60;;;2.03;;
8663;SDS011;4369;47.842;13.096;2023-04-25T10:45:21;3.37;;;2.63;;
8663;SDS011;4369;47.842;13.096;2023-04-25T10:47:48;2.23;;;2.03;;
8663;SDS011;4369;47.842;13.096;2023-04-25T10:50:15;2.57;;;2.07;;
8663;SDS011;4369;47.842;13.096;2023-04-25T10:52:42;2.13;;;1.90;;
8663;SDS011;4369;47.842;13.096;2023-04-25T10:55:10;2.27;;;2.00;;
8663;SDS011;4369;47.842;13.096;2023-04-25T10:57:38;3.53;;;1.93;;
8663;SDS011;4369;47.842;13.096;2023-04-25T11:00:12;2.63;;;2.00;;
8663;SDS011;4369;47.842;13.096;2023-04-25T11:02:41;3.70;;;2.30;;
8663;SDS011;4369;47.842;13.096;2023-04-25T11:05:10;2.40;;;2.13;;
8663;SDS011;4369;47.842;13.096;2023-04-25T11:07:44;2.77;;;2.10;;
8663;SDS011;4369;47.842;13.096;2023-04-25T11:10:16;3.27;;;2.10;;
8663;SDS011;4369;47.842;13.096;2023-04-25T11:12:44;4.67;;;2.13;;
8663;SDS011;4369;47.842;13.096;2023-04-25T11:15:12;3.73;;;2.40;;
8663;SDS011;4369;47.842;13.096;2023-04-25T11:17:39;2.63;;;2.07;;
8663;SDS011;4369;47.842;13.096;2023-04-25T11:20:07;3.20;;;2.30;;
8663;SDS011;4369;47.842;13.096;2023-04-25T11:22:37;3.20;;;2.10;;
8663;SDS011;4369;47.842;13.096;2023-04-25T11:25:06;2.60;;;2.07;;
8663;SDS011;4369;47.842;13.096;2023-04-25T11:27:33;4.90;;;2.20;;
8663;SDS011;4369;47.842;13.096;2023-04-25T11:30:10;5.60;;;2.93;;
8663;SDS011;4369;47.842;13.096;2023-04-25T11:32:40;6.13;;;2.70;;
8663;SDS011;4369;47.842;13.096;2023-04-25T11:35:08;2.93;;;1.97;;
8663;SDS011;4369;47.842;13.096;2023-04-25T11:37:35;4.43;;;2.37;;
8663;SDS011;4369;47.842;13.096;2023-04-25T11:40:02;1.93;;;1.83;;
8663;SDS011;4369;47.842;13.096;2023-04-25T11:42:31;4.60;;;2.17;;
8663;SDS011;4369;47.842;13.096;2023-04-25T11:44:58;2.07;;;1.97;;
8663;SDS011;4369;47.842;13.096;2023-04-25T11:47:29;5.20;;;2.13;;
8663;SDS011;4369;47.842;13.096;2023-04-25T11:49:57;3.07;;;2.30;;
8663;SDS011;4369;47.842;13.096;2023-04-25T11:52:34;8.53;;;2.50;;
8663;SDS011;4369;47.842;13.096;2023-04-25T11:55:03;5.77;;;2.70;;
8663;SDS011;4369;47.842;13.096;2023-04-25T11:57:32;3.07;;;2.47;;
8663;SDS011;4369;47.842;13.096;2023-04-25T12:00:04;3.17;;;2.53;;
8663;SDS011;4369;47.842;13.096;2023-04-25T12:02:35;4.70;;;2.47;;
8663;SDS011;4369;47.842;13.096;2023-04-25T12:05:05;5.17;;;2.70;;
8663;SDS011;4369;47.842;13.096;2023-04-25T12:07:33;3.80;;;2.43;;
8663;SDS011;4369;47.842;13.096;2023-04-25T12:10:03;3.90;;;2.00;;
8663;SDS011;4369;47.842;13.096;2023-04-25T12:12:32;2.47;;;1.30;;
8663;SDS011;4369;47.842;13.096;2023-04-25T12:15:07;1.00;;;1.00;;
8663;SDS011;4369;47.842;13.096;2023-04-25T12:17:38;7.47;;;1.70;;
8663;SDS011;4369;47.842;13.096;2023-04-25T12:20:09;1.33;;;1.00;;
8663;SDS011;4369;47.842;13.096;2023-04-25T12:22:37;1.90;;;1.40;;
8663;SDS011;4369;47.842;13.096;2023-04-25T12:25:04;3.40;;;1.53;;
8663;SDS011;4369;47.842;13.096;2023-04-25T12:27:32;1.60;;;1.50;;
8663;SDS011;4369;47.842;13.096;2023-04-25T12:30:01;2.03;;;1.43;;
8663;SDS011;4369;47.842;13.096;2023-04-25T12:32:28;1.70;;;1.60;;
8663;SDS011;4369;47.842;13.096;2023-04-25T12:34:56;2.87;;;1.60;;
8663;SDS011;4369;47.842;13.096;2023-04-25T12:37:23;3.53;;;1.93;;
8663;SDS011;4369;47.842;13.096;2023-04-25T12:39:50;2.67;;;1.80;;
8663;SDS011;4369;47.842;13.096;2023-04-25T12:42:17;3.97;;;1.70;;
8663;SDS011;4369;47.842;13.096;2023-04-25T12:44:44;1.80;;;1.70;;
8663;SDS011;4369;47.842;13.096;2023-04-25T12:47:11;2.70;;;2.20;;
8663;SDS011;4369;47.842;13.096;2023-04-25T12:49:38;1.67;;;1.57;;
8663;SDS011;4369;47.842;13.096;2023-04-25T12:52:07;1.83;;;1.70;;
8663;SDS011;4369;47.842;13.096;2023-04-25T12:54:33;7.80;;;2.70;;
8663;SDS011;4369;47.842;13.096;2023-04-25T12:57:00;3.47;;;2.07;;
8663;SDS011;4369;47.842;13.096;2023-04-25T12:59:27;2.40;;;2.10;;
8663;SDS011;4369;47.842;13.096;2023-04-25T13:01:55;2.10;;;1.90;;
8663;SDS011;4369;47.842;13.096;2023-04-25T13:04:24;1.93;;;1.83;;
8663;SDS011;4369;47.842;13.096;2023-04-25T13:06:51;2.80;;;1.80;;
8663;SDS011;4369;47.842;13.096;2023-04-25T13:09:20;2.17;;;2.07;;
8663;SDS011;4369;47.842;13.096;2023-04-25T13:11:47;4.03;;;1.77;;
8663;SDS011;4369;47.842;13.096;2023-04-25T13:14:13;4.40;;;1.80;;
8663;SDS011;4369;47.842;13.096;2023-04-25T13:16:40;2.03;;;1.80;;
8663;SDS011;4369;47.842;13.096;2023-04-25T13:19:07;1.90;;;1.67;;
8663;SDS011;4369;47.842;13.096;2023-04-25T13:21:36;2.20;;;2.00;;
8663;SDS011;4369;47.842;13.096;2023-04-25T13:24:03;2.70;;;1.90;;
8663;SDS011;4369;47.842;13.096;2023-04-25T13:26:32;2.20;;;2.10;;
8663;SDS011;4369;47.842;13.096;2023-04-25T13:28:59;2.30;;;2.00;;
8663;SDS011;4369;47.842;13.096;2023-04-25T13:31:28;3.10;;;1.80;;
8663;SDS011;4369;47.842;13.096;2023-04-25T13:33:55;2.30;;;2.10;;
8663;SDS011;4369;47.842;13.096;2023-04-25T13:36:22;2.37;;;2.20;;
8663;SDS011;4369;47.842;13.096;2023-04-25T13:38:49;2.10;;;2.00;;
8663;SDS011;4369;47.842;13.096;2023-04-25T13:41:15;2.43;;;2.23;;
8663;SDS011;4369;47.842;13.096;2023-04-25T13:43:45;2.90;;;2.50;;
8663;SDS011;4369;47.842;13.096;2023-04-25T13:46:13;2.83;;;2.17;;
8663;SDS011;4369;47.842;13.096;2023-04-25T13:48:41;2.57;;;2.03;;
8663;SDS011;4369;47.842;13.096;2023-04-25T13:51:11;4.53;;;2.43;;
8663;SDS011;4369;47.842;13.096;2023-04-25T13:53:39;3.20;;;2.50;;
8663;SDS011;4369;47.842;13.096;2023-04-25T13:56:06;4.17;;;2.60;;
8663;SDS011;4369;47.842;13.096;2023-04-25T13:58:33;4.03;;;2.83;;
8663;SDS011;4369;47.842;13.096;2023-04-25T14:01:02;2.80;;;2.60;;
8663;SDS011;4369;47.842;13.096;2023-04-25T14:03:29;3.13;;;2.50;;
8663;SDS011;4369;47.842;13.096;2023-04-25T14:05:56;2.67;;;2.47;;
8663;SDS011;4369;47.842;13.096;2023-04-25T14:08:23;3.53;;;2.57;;
8663;SDS011;4369;47.842;13.096;2023-04-25T14:10:50;3.20;;;2.90;;
8663;SDS011;4369;47.842;13.096;2023-04-25T14:13:17;4.30;;;3.03;;
8663;SDS011;4369;47.842;13.096;2023-04-25T14:15:44;3.57;;;3.17;;
8663;SDS011;4369;47.842;13.096;2023-04-25T14:18:12;3.43;;;3.00;;
8663;SDS011;4369;47.842;13.096;2023-04-25T14:20:39;3.67;;;3.30;;
8663;SDS011;4369;47.842;13.096;2023-04-25T14:23:07;3.30;;;3.00;;
8663;SDS011;4369;47.842;13.096;2023-04-25T14:25:34;3.30;;;3.00;;
8663;SDS011;4369;47.842;13.096;2023-04-25T14:28:01;5.40;;;3.43;;
8663;SDS011;4369;47.842;13.096;2023-04-25T14:30:28;4.00;;;3.13;;
8663;SDS011;4369;47.842;13.096;2023-04-25T14:32:55;4.43;;;3.33;;
8663;SDS011;4369;47.842;13.096;2023-04-25T14:35:23;3.00;;;2.80;;
8663;SDS011;4369;47.842;13.096;2023-04-25T14:37:50;3.97;;;2.77;;
8663;SDS011;4369;47.842;13.096;2023-04-25T14:40:18;5.70;;;3.53;;
8663;SDS011;4369;47.842;13.096;2023-04-25T14:42:48;3.60;;;3.30;;
8663;SDS011;4369;47.842;13.096;2023-04-25T14:45:15;2.90;;;2.63;;
8663;SDS011;4369;47.842;13.096;2023-04-25T14:47:41;3.23;;;2.93;;
8663;SDS011;4369;47.842;13.096;2023-04-25T14:50:09;4.27;;;3.27;;
8663;SDS011;4369;47.842;13.096;2023-04-25T14:52:38;5.67;;;3.10;;
8663;SDS011;4369;47.842;13.096;2023-04-25T14:55:05;5.60;;;3.70;;
8663;SDS011;4369;47.842;13.096;2023-04-25T14:57:32;3.70;;;2.90;;
8663;SDS011;4369;47.842;13.096;2023-04-25T14:59:59;4.73;;;2.87;;
8663;SDS011;4369;47.842;13.096;2023-04-25T15:02:27;4.23;;;2.47;;